sensor_id;sensor_type;location;lat;lon;timestamp;P1;durP1;ratioP1;P2;durP2;ratioP2
35679;SDS011;21803;53.586;10.040;2023-05-10T04:01:35;1.27;;;1.10;;
35679;SDS011;21803;53.586;10.040;2023-05-10T04:04:00;1.10;;;0.90;;
35679;SDS011;21803;53.586;10.040;2023-05-10T04:06:26;1.75;;;1.10;;
35679;SDS011;21803;53.586;10.040;2023-05-10T04:08:51;1.20;;;1.10;;
35679;SDS011;21803;53.586;10.040;2023-05-10T04:11:18;1.40;;;1.10;;
35679;SDS011;21803;53.586;10.040;2023-05-10T04:13:43;1.20;;;1.10;;
35679;SDS011;21803;53.586;10.040;2023-05-10T04:18:38;1.55;;;1.10;;
35679;SDS011;21803;53.586;10.040;2023-05-10T04:21:04;1.27;;;1.15;;
35679;SDS011;21803;53.586;10.040;2023-05-10T04:23:36;1.10;;;1.00;;
35679;SDS011;21803;53.586;10.040;2023-05-10T04:26:02;1.00;;;0.90;;
35679;SDS011;21803;53.586;10.040;2023-05-10T04:28:27;1.05;;;0.95;;
35679;SDS011;21803;53.586;10.040;2023-05-10T04:30:53;1.95;;;1.20;;
35679;SDS011;21803;53.586;10.040;2023-05-10T04:33:29;0.80;;;0.80;;
35679;SDS011;21803;53.586;10.040;2023-05-10T04:35:55;1.15;;;1.05;;
35679;SDS011;21803;53.586;10.040;2023-05-10T04:38:21;1.20;;;1.10;;
35679;SDS011;21803;53.586;10.040;2023-05-10T04:40:46;1.25;;;1.10;;
35679;SDS011;21803;53.586;10.040;2023-05-10T04:43:12;1.25;;;1.00;;
35679;SDS011;21803;53.586;10.040;2023-05-10T04:45:37;1.40;;;1.08;;
35679;SDS011;21803;53.586;10.040;2023-05-10T04:48:03;1.52;;;1.13;;
35679;SDS011;21803;53.586;10.040;2023-05-10T04:50:29;1.17;;;1.08;;
35679;SDS011;21803;53.586;10.040;2023-05-10T04:52:55;1.23;;;1.10;;
35679;SDS011;21803;53.586;10.040;2023-05-10T04:55:20;1.77;;;1.10;;
35679;SDS011;21803;53.586;10.040;2023-05-10T04:57:46;1.30;;;1.10;;
35679;SDS011;21803;53.586;10.040;2023-05-10T05:00:11;1.50;;;1.00;;
35679;SDS011;21803;53.586;10.040;2023-05-10T05:02:37;1.40;;;1.20;;
35679;SDS011;21803;53.586;10.040;2023-05-10T05:05:03;1.70;;;1.10;;
35679;SDS011;21803;53.586;10.040;2023-05-10T05:07:29;1.42;;;1.02;;
35679;SDS011;21803;53.586;10.040;2023-05-10T05:09:55;1.00;;;0.88;;
35679;SDS011;21803;53.586;10.040;2023-05-10T05:12:21;1.13;;;1.00;;
35679;SDS011;21803;53.586;10.040;2023-05-10T05:14:46;2.78;;;1.10;;
35679;SDS011;21803;53.586;10.040;2023-05-10T05:17:12;1.05;;;0.93;;
35679;SDS011;21803;53.586;10.040;2023-05-10T05:19:37;1.27;;;0.95;;
35679;SDS011;21803;53.586;10.040;2023-05-10T05:22:03;1.17;;;1.00;;
35679;SDS011;21803;53.586;10.040;2023-05-10T05:24:28;1.20;;;1.10;;
35679;SDS011;21803;53.586;10.040;2023-05-10T05:26:54;1.50;;;1.10;;
35679;SDS011;21803;53.586;10.040;2023-05-10T05:29:19;1.10;;;1.00;;
35679;SDS011;21803;53.586;10.040;2023-05-10T05:31:45;1.33;;;1.20;;
35679;SDS011;21803;53.586;10.040;2023-05-10T05:34:10;1.40;;;1.10;;
35679;SDS011;21803;53.586;10.040;2023-05-10T05:36:36;1.10;;;1.00;;
35679;SDS011;21803;53.586;10.040;2023-05-10T05:39:05;1.30;;;1.20;;
35679;SDS011;21803;53.586;10.040;2023-05-10T05:41:30;1.05;;;0.95;;
35679;SDS011;21803;53.586;10.040;2023-05-10T05:43:56;1.15;;;1.02;;
35679;SDS011;21803;53.586;10.040;2023-05-10T05:46:21;1.63;;;1.13;;
35679;SDS011;21803;53.586;10.040;2023-05-10T05:48:47;1.27;;;1.17;;
35679;SDS011;21803;53.586;10.040;2023-05-10T05:51:12;1.45;;;1.10;;
35679;SDS011;21803;53.586;10.040;2023-05-10T05:53:38;1.05;;;0.95;;
35679;SDS011;21803;53.586;10.040;2023-05-10T05:56:03;1.15;;;0.90;;
35679;SDS011;21803;53.586;10.040;2023-05-10T05:58:29;1.38;;;1.20;;
35679;SDS011;21803;53.586;10.040;2023-05-10T06:00:54;1.15;;;1.05;;
35679;SDS011;21803;53.586;10.040;2023-05-10T06:03:20;1.08;;;0.98;;
35679;SDS011;21803;53.586;10.040;2023-05-10T06:05:46;1.08;;;0.90;;
35679;SDS011;21803;53.586;10.040;2023-05-10T06:08:12;1.13;;;1.02;;
35679;SDS011;21803;53.586;10.040;2023-05-10T06:10:38;0.95;;;0.88;;
35679;SDS011;21803;53.586;10.040;2023-05-10T06:13:03;1.00;;;0.90;;
35679;SDS011;21803;53.586;10.040;2023-05-10T06:15:29;1.35;;;0.80;;
35679;SDS011;21803;53.586;10.040;2023-05-10T06:17:54;1.15;;;1.02;;
35679;SDS011;21803;53.586;10.040;2023-05-10T06:20:20;1.33;;;1.10;;
35679;SDS011;21803;53.586;10.040;2023-05-10T06:22:45;1.30;;;1.00;;
35679;SDS011;21803;53.586;10.040;2023-05-10T06:25:11;1.15;;;1.00;;
35679;SDS011;21803;53.586;10.040;2023-05-10T06:27:37;1.20;;;1.10;;
35679;SDS011;21803;53.586;10.040;2023-05-10T06:30:02;1.38;;;1.10;;
35679;SDS011;21803;53.586;10.040;2023-05-10T06:32:29;1.30;;;1.20;;
35679;SDS011;21803;53.586;10.040;2023-05-10T06:34:55;1.45;;;1.10;;
35679;SDS011;21803;53.586;10.040;2023-05-10T06:37:20;1.05;;;0.95;;
35679;SDS011;21803;53.586;10.040;2023-05-10T06:39:46;1.17;;;1.08;;
35679;SDS011;21803;53.586;10.040;2023-05-10T06:42:11;1.63;;;1.20;;
35679;SDS011;21803;53.586;10.040;2023-05-10T06:44:37;2.25;;;1.10;;
35679;SDS011;21803;53.586;10.040;2023-05-10T06:47:02;1.10;;;1.00;;
35679;SDS011;21803;53.586;10.040;2023-05-10T06:49:28;1.30;;;1.00;;
35679;SDS011;21803;53.586;10.040;2023-05-10T06:51:55;1.67;;;1.02;;
35679;SDS011;21803;53.586;10.040;2023-05-10T06:54:21;1.27;;;1.10;;
35679;SDS011;21803;53.586;10.040;2023-05-10T06:56:46;1.02;;;0.90;;
35679;SDS011;21803;53.586;10.040;2023-05-10T06:59:12;1.85;;;1.17;;
35679;SDS011;21803;53.586;10.040;2023-05-10T07:01:38;1.63;;;1.00;;
35679;SDS011;21803;53.586;10.040;2023-05-10T07:04:04;1.75;;;1.10;;
35679;SDS011;21803;53.586;10.040;2023-05-10T07:06:30;1.20;;;1.10;;
35679;SDS011;21803;53.586;10.040;2023-05-10T07:08:55;1.10;;;1.00;;
35679;SDS011;21803;53.586;10.040;2023-05-10T07:11:21;1.13;;;1.02;;
35679;SDS011;21803;53.586;10.040;2023-05-10T07:13:46;1.25;;;0.98;;
35679;SDS011;21803;53.586;10.040;2023-05-10T07:16:12;1.02;;;0.93;;
35679;SDS011;21803;53.586;10.040;2023-05-10T07:18:37;1.02;;;0.90;;
35679;SDS011;21803;53.586;10.040;2023-05-10T07:21:03;1.88;;;1.10;;
35679;SDS011;21803;53.586;10.040;2023-05-10T07:23:29;1.27;;;0.95;;
35679;SDS011;21803;53.586;10.040;2023-05-10T07:25:55;1.10;;;0.98;;
35679;SDS011;21803;53.586;10.040;2023-05-10T07:28:22;0.98;;;0.90;;
35679;SDS011;21803;53.586;10.040;2023-05-10T07:30:49;2.15;;;1.17;;
35679;SDS011;21803;53.586;10.040;2023-05-10T07:33:14;1.25;;;1.02;;
35679;SDS011;21803;53.586;10.040;2023-05-10T07:35:40;1.20;;;1.10;;
35679;SDS011;21803;53.586;10.040;2023-05-10T07:38:06;1.25;;;1.00;;
35679;SDS011;21803;53.586;10.040;2023-05-10T07:40:32;1.20;;;1.00;;
35679;SDS011;21803;53.586;10.040;2023-05-10T07:42:57;1.48;;;1.17;;
35679;SDS011;21803;53.586;10.040;2023-05-10T07:45:24;1.20;;;1.10;;
35679;SDS011;21803;53.586;10.040;2023-05-10T07:47:50;1.58;;;1.13;;
35679;SDS011;21803;53.586;10.040;2023-05-10T07:50:15;1.23;;;1.10;;
35679;SDS011;21803;53.586;10.040;2023-05-10T07:52:41;1.40;;;1.10;;
35679;SDS011;21803;53.586;10.040;2023-05-10T07:55:07;1.33;;;1.00;;
35679;SDS011;21803;53.586;10.040;2023-05-10T07:57:33;1.10;;;1.00;;
35679;SDS011;21803;53.586;10.040;2023-05-10T07:59:59;1.20;;;1.10;;
35679;SDS011;21803;53.586;10.040;2023-05-10T08:02:24;1.25;;;1.10;;
35679;SDS011;21803;53.586;10.040;2023-05-10T08:04:50;2.70;;;1.02;;
35679;SDS011;21803;53.586;10.040;2023-05-10T08:07:16;1.20;;;1.08;;
35679;SDS011;21803;53.586;10.040;2023-05-10T08:09:42;2.35;;;1.25;;
35679;SDS011;21803;53.586;10.040;2023-05-10T08:12:07;1.33;;;1.15;;
35679;SDS011;21803;53.586;10.040;2023-05-10T08:14:33;1.58;;;1.00;;
35679;SDS011;21803;53.586;10.040;2023-05-10T08:16:59;2.25;;;1.10;;
35679;SDS011;21803;53.586;10.040;2023-05-10T08:19:24;2.08;;;1.00;;
35679;SDS011;21803;53.586;10.040;2023-05-10T08:21:50;1.35;;;1.10;;
35679;SDS011;21803;53.586;10.040;2023-05-10T08:24:15;1.55;;;0.88;;
35679;SDS011;21803;53.586;10.040;2023-05-10T08:26:41;1.50;;;1.20;;
35679;SDS011;21803;53.586;10.040;2023-05-10T08:29:07;2.80;;;1.10;;
35679;SDS011;21803;53.586;10.040;2023-05-10T08:31:32;1.25;;;1.13;;
35679;SDS011;21803;53.586;10.040;2023-05-10T08:33:58;1.25;;;0.95;;
35679;SDS011;21803;53.586;10.040;2023-05-10T08:36:23;1.17;;;1.00;;
35679;SDS011;21803;53.586;10.040;2023-05-10T08:38:52;1.38;;;1.00;;
35679;SDS011;21803;53.586;10.040;2023-05-10T08:41:19;1.83;;;1.00;;
35679;SDS011;21803;53.586;10.040;2023-05-10T08:43:46;1.88;;;1.40;;
35679;SDS011;21803;53.586;10.040;2023-05-10T08:46:16;1.23;;;1.00;;
35679;SDS011;21803;53.586;10.040;2023-05-10T08:48:44;1.30;;;1.20;;
35679;SDS011;21803;53.586;10.040;2023-05-10T08:51:14;1.65;;;1.00;;
35679;SDS011;21803;53.586;10.040;2023-05-10T08:53:44;1.10;;;0.90;;
35679;SDS011;21803;53.586;10.040;2023-05-10T08:56:10;1.38;;;1.10;;
35679;SDS011;21803;53.586;10.040;2023-05-10T08:58:36;1.50;;;0.95;;
35679;SDS011;21803;53.586;10.040;2023-05-10T09:01:03;2.03;;;1.00;;
35679;SDS011;21803;53.586;10.040;2023-05-10T09:03:30;1.58;;;1.13;;
35679;SDS011;21803;53.586;10.040;2023-05-10T09:05:56;2.00;;;1.13;;
35679;SDS011;21803;53.586;10.040;2023-05-10T09:08:22;3.47;;;1.20;;
35679;SDS011;21803;53.586;10.040;2023-05-10T09:10:52;1.35;;;1.00;;
35679;SDS011;21803;53.586;10.040;2023-05-10T09:13:19;0.82;;;0.80;;
35679;SDS011;21803;53.586;10.040;2023-05-10T09:15:45;1.15;;;0.90;;
35679;SDS011;21803;53.586;10.040;2023-05-10T09:18:12;1.10;;;0.98;;
35679;SDS011;21803;53.586;10.040;2023-05-10T09:20:37;1.20;;;1.10;;
35679;SDS011;21803;53.586;10.040;2023-05-10T09:23:03;1.50;;;1.02;;
35679;SDS011;21803;53.586;10.040;2023-05-10T09:25:28;1.25;;;1.00;;
35679;SDS011;21803;53.586;10.040;2023-05-10T09:27:54;1.23;;;1.10;;
35679;SDS011;21803;53.586;10.040;2023-05-10T09:30:24;1.08;;;0.98;;
35679;SDS011;21803;53.586;10.040;2023-05-10T09:32:50;1.60;;;0.90;;
35679;SDS011;21803;53.586;10.040;2023-05-10T09:35:17;1.10;;;1.00;;
35679;SDS011;21803;53.586;10.040;2023-05-10T09:37:46;1.23;;;1.13;;
35679;SDS011;21803;53.586;10.040;2023-05-10T09:40:14;1.20;;;0.98;;
35679;SDS011;21803;53.586;10.040;2023-05-10T09:42:41;1.35;;;1.17;;
35679;SDS011;21803;53.586;10.040;2023-05-10T09:45:15;1.25;;;0.80;;
35679;SDS011;21803;53.586;10.040;2023-05-10T09:47:40;1.10;;;1.00;;
35679;SDS011;21803;53.586;10.040;2023-05-10T09:50:06;1.02;;;0.90;;
35679;SDS011;21803;53.586;10.040;2023-05-10T09:55:38;1.45;;;1.00;;
35679;SDS011;21803;53.586;10.040;2023-05-10T09:58:03;1.17;;;1.00;;
35679;SDS011;21803;53.586;10.040;2023-05-10T10:00:35;1.48;;;0.90;;
35679;SDS011;21803;53.586;10.040;2023-05-10T10:03:02;0.85;;;0.80;;
35679;SDS011;21803;53.586;10.040;2023-05-10T10:05:39;1.63;;;0.98;;
35679;SDS011;21803;53.586;10.040;2023-05-10T10:08:06;1.50;;;0.95;;
35679;SDS011;21803;53.586;10.040;2023-05-10T10:10:32;1.20;;;1.00;;
35679;SDS011;21803;53.586;10.040;2023-05-10T10:12:58;1.00;;;0.90;;
35679;SDS011;21803;53.586;10.040;2023-05-10T10:15:24;1.08;;;0.98;;
35679;SDS011;21803;53.586;10.040;2023-05-10T10:17:50;1.83;;;1.50;;
35679;SDS011;21803;53.586;10.040;2023-05-10T10:20:17;2.28;;;1.00;;
35679;SDS011;21803;53.586;10.040;2023-05-10T10:22:43;1.20;;;0.88;;
35679;SDS011;21803;53.586;10.040;2023-05-10T10:25:13;1.10;;;0.85;;
35679;SDS011;21803;53.586;10.040;2023-05-10T10:30:28;1.13;;;0.95;;
35679;SDS011;21803;53.586;10.040;2023-05-10T10:36:13;0.98;;;0.88;;
35679;SDS011;21803;53.586;10.040;2023-05-10T10:41:31;1.10;;;0.95;;
35679;SDS011;21803;53.586;10.040;2023-05-10T10:55:11;1.80;;;1.08;;
35679;SDS011;21803;53.586;10.040;2023-05-10T10:57:42;0.93;;;0.88;;
35679;SDS011;21803;53.586;10.040;2023-05-10T11:03:12;0.98;;;0.80;;
35679;SDS011;21803;53.586;10.040;2023-05-10T11:05:43;1.85;;;1.15;;
35679;SDS011;21803;53.586;10.040;2023-05-10T11:08:17;1.35;;;1.15;;
35679;SDS011;21803;53.586;10.040;2023-05-10T11:13:26;1.77;;;1.00;;
35679;SDS011;21803;53.586;10.040;2023-05-10T11:15:54;1.15;;;1.00;;
35679;SDS011;21803;53.586;10.040;2023-05-10T11:18:28;1.77;;;0.95;;
35679;SDS011;21803;53.586;10.040;2023-05-10T11:23:31;1.13;;;1.02;;
35679;SDS011;21803;53.586;10.040;2023-05-10T11:25:58;1.08;;;0.95;;
35679;SDS011;21803;53.586;10.040;2023-05-10T11:28:25;1.20;;;1.10;;
35679;SDS011;21803;53.586;10.040;2023-05-10T11:30:52;1.08;;;0.90;;
35679;SDS011;21803;53.586;10.040;2023-05-10T11:33:18;1.20;;;1.10;;
35679;SDS011;21803;53.586;10.040;2023-05-10T11:35:44;1.65;;;0.85;;
35679;SDS011;21803;53.586;10.040;2023-05-10T11:38:11;6.15;;;1.17;;
35679;SDS011;21803;53.586;10.040;2023-05-10T11:40:38;2.35;;;1.10;;
35679;SDS011;21803;53.586;10.040;2023-05-10T11:43:04;3.45;;;1.10;;
35679;SDS011;21803;53.586;10.040;2023-05-10T11:45:34;3.03;;;1.00;;
35679;SDS011;21803;53.586;10.040;2023-05-10T11:48:00;1.38;;;1.00;;
35679;SDS011;21803;53.586;10.040;2023-05-10T11:50:26;2.35;;;1.10;;
35679;SDS011;21803;53.586;10.040;2023-05-10T11:52:56;4.60;;;1.30;;
35679;SDS011;21803;53.586;10.040;2023-05-10T11:55:22;3.42;;;1.13;;
35679;SDS011;21803;53.586;10.040;2023-05-10T11:57:52;1.38;;;1.10;;
35679;SDS011;21803;53.586;10.040;2023-05-10T12:00:19;1.70;;;1.00;;
35679;SDS011;21803;53.586;10.040;2023-05-10T12:02:44;1.15;;;0.98;;
35679;SDS011;21803;53.586;10.040;2023-05-10T12:05:10;1.77;;;1.33;;
35679;SDS011;21803;53.586;10.040;2023-05-10T12:07:36;2.78;;;1.30;;
35679;SDS011;21803;53.586;10.040;2023-05-10T12:10:02;1.73;;;1.30;;
35679;SDS011;21803;53.586;10.040;2023-05-10T12:12:43;3.05;;;1.38;;
35679;SDS011;21803;53.586;10.040;2023-05-10T12:15:16;2.67;;;1.30;;
35679;SDS011;21803;53.586;10.040;2023-05-10T12:17:44;2.08;;;1.50;;
35679;SDS011;21803;53.586;10.040;2023-05-10T12:20:14;6.63;;;1.23;;
35679;SDS011;21803;53.586;10.040;2023-05-10T12:22:43;2.97;;;1.40;;
35679;SDS011;21803;53.586;10.040;2023-05-10T12:25:12;1.92;;;1.40;;
35679;SDS011;21803;53.586;10.040;2023-05-10T12:27:38;2.08;;;1.30;;
35679;SDS011;21803;53.586;10.040;2023-05-10T12:30:03;2.65;;;1.40;;
35679;SDS011;21803;53.586;10.040;2023-05-10T12:32:41;3.97;;;1.70;;
35679;SDS011;21803;53.586;10.040;2023-05-10T12:35:08;1.80;;;1.58;;
35679;SDS011;21803;53.586;10.040;2023-05-10T12:37:34;1.85;;;1.55;;
35679;SDS011;21803;53.586;10.040;2023-05-10T12:40:05;3.60;;;1.90;;
35679;SDS011;21803;53.586;10.040;2023-05-10T12:42:35;2.15;;;1.65;;
35679;SDS011;21803;53.586;10.040;2023-05-10T12:45:02;4.15;;;1.73;;
35679;SDS011;21803;53.586;10.040;2023-05-10T12:47:29;2.30;;;2.00;;
35679;SDS011;21803;53.586;10.040;2023-05-10T12:49:55;6.53;;;2.25;;
35679;SDS011;21803;53.586;10.040;2023-05-10T12:52:20;6.72;;;2.10;;
35679;SDS011;21803;53.586;10.040;2023-05-10T12:54:46;5.72;;;2.28;;
35679;SDS011;21803;53.586;10.040;2023-05-10T12:57:12;4.35;;;2.33;;
35679;SDS011;21803;53.586;10.040;2023-05-10T12:59:38;4.88;;;2.45;;
35679;SDS011;21803;53.586;10.040;2023-05-10T13:02:04;4.60;;;3.05;;
35679;SDS011;21803;53.586;10.040;2023-05-10T13:04:29;2.95;;;2.50;;
35679;SDS011;21803;53.586;10.040;2023-05-10T13:06:55;3.60;;;2.50;;
35679;SDS011;21803;53.586;10.040;2023-05-10T13:09:24;3.95;;;3.10;;
35679;SDS011;21803;53.586;10.040;2023-05-10T13:11:51;3.30;;;2.70;;
35679;SDS011;21803;53.586;10.040;2023-05-10T13:14:18;3.30;;;2.38;;
35679;SDS011;21803;53.586;10.040;2023-05-10T13:16:45;4.75;;;3.30;;
35679;SDS011;21803;53.586;10.040;2023-05-10T13:19:11;4.22;;;2.90;;
35679;SDS011;21803;53.586;10.040;2023-05-10T13:21:37;3.65;;;2.78;;
35679;SDS011;21803;53.586;10.040;2023-05-10T13:24:03;4.00;;;2.88;;
35679;SDS011;21803;53.586;10.040;2023-05-10T13:26:28;3.22;;;2.83;;
35679;SDS011;21803;53.586;10.040;2023-05-10T13:28:54;3.53;;;2.80;;
35679;SDS011;21803;53.586;10.040;2023-05-10T13:31:20;5.25;;;3.10;;
35679;SDS011;21803;53.586;10.040;2023-05-10T13:33:46;3.53;;;2.60;;
35679;SDS011;21803;53.586;10.040;2023-05-10T13:36:11;2.95;;;2.50;;
35679;SDS011;21803;53.586;10.040;2023-05-10T13:38:37;3.85;;;2.58;;
35679;SDS011;21803;53.586;10.040;2023-05-10T13:41:02;2.85;;;2.53;;
35679;SDS011;21803;53.586;10.040;2023-05-10T13:43:28;3.65;;;2.92;;
35679;SDS011;21803;53.586;10.040;2023-05-10T13:45:54;4.35;;;3.00;;
35679;SDS011;21803;53.586;10.040;2023-05-10T13:48:20;3.35;;;2.50;;
35679;SDS011;21803;53.586;10.040;2023-05-10T13:50:46;4.43;;;2.67;;
35679;SDS011;21803;53.586;10.040;2023-05-10T13:53:12;3.25;;;2.50;;
35679;SDS011;21803;53.586;10.040;2023-05-10T13:55:37;4.65;;;2.38;;
35679;SDS011;21803;53.586;10.040;2023-05-10T13:58:03;5.18;;;2.40;;
35679;SDS011;21803;53.586;10.040;2023-05-10T14:00:29;2.50;;;2.20;;
35679;SDS011;21803;53.586;10.040;2023-05-10T14:02:54;3.45;;;2.50;;
35679;SDS011;21803;53.586;10.040;2023-05-10T14:05:20;2.95;;;2.42;;
35679;SDS011;21803;53.586;10.040;2023-05-10T14:07:45;3.70;;;2.80;;
35679;SDS011;21803;53.586;10.040;2023-05-10T14:10:11;3.10;;;2.50;;
35679;SDS011;21803;53.586;10.040;2023-05-10T14:12:37;2.75;;;2.15;;
35679;SDS011;21803;53.586;10.040;2023-05-10T14:15:02;3.13;;;1.88;;
35679;SDS011;21803;53.586;10.040;2023-05-10T14:17:30;3.92;;;2.13;;
35679;SDS011;21803;53.586;10.040;2023-05-10T14:19:56;2.85;;;1.98;;
35679;SDS011;21803;53.586;10.040;2023-05-10T14:22:22;1.75;;;1.58;;
35679;SDS011;21803;53.586;10.040;2023-05-10T14:24:48;2.88;;;1.77;;
35679;SDS011;21803;53.586;10.040;2023-05-10T14:27:13;2.63;;;1.90;;
35679;SDS011;21803;53.586;10.040;2023-05-10T14:29:39;1.88;;;1.67;;
35679;SDS011;21803;53.586;10.040;2023-05-10T14:32:04;2.40;;;1.60;;
35679;SDS011;21803;53.586;10.040;2023-05-10T14:34:30;4.10;;;2.08;;
35679;SDS011;21803;53.586;10.040;2023-05-10T14:36:56;1.73;;;1.60;;
35679;SDS011;21803;53.586;10.040;2023-05-10T14:39:21;2.65;;;1.75;;
35679;SDS011;21803;53.586;10.040;2023-05-10T14:41:47;2.40;;;1.88;;
35679;SDS011;21803;53.586;10.040;2023-05-10T14:44:13;2.08;;;1.65;;
35679;SDS011;21803;53.586;10.040;2023-05-10T14:46:40;2.70;;;1.92;;
35679;SDS011;21803;53.586;10.040;2023-05-10T14:49:06;2.10;;;1.67;;
35679;SDS011;21803;53.586;10.040;2023-05-10T14:51:32;2.30;;;1.55;;
35679;SDS011;21803;53.586;10.040;2023-05-10T14:53:58;1.60;;;1.50;;
35679;SDS011;21803;53.586;10.040;2023-05-10T14:56:24;1.80;;;1.60;;
35679;SDS011;21803;53.586;10.040;2023-05-10T14:58:50;1.80;;;1.60;;
35679;SDS011;21803;53.586;10.040;2023-05-10T15:01:16;1.92;;;1.50;;
35679;SDS011;21803;53.586;10.040;2023-05-10T15:03:41;1.65;;;1.55;;
35679;SDS011;21803;53.586;10.040;2023-05-10T15:06:08;2.03;;;1.83;;
35679;SDS011;21803;53.586;10.040;2023-05-10T15:08:33;1.92;;;1.38;;
35679;SDS011;21803;53.586;10.040;2023-05-10T15:10:59;1.73;;;1.60;;
35679;SDS011;21803;53.586;10.040;2023-05-10T15:13:24;2.40;;;1.50;;
35679;SDS011;21803;53.586;10.040;2023-05-10T15:15:50;1.90;;;1.70;;
35679;SDS011;21803;53.586;10.040;2023-05-10T15:18:16;3.80;;;1.52;;
35679;SDS011;21803;53.586;10.040;2023-05-10T15:20:41;1.92;;;1.30;;
35679;SDS011;21803;53.586;10.040;2023-05-10T15:23:07;1.50;;;1.33;;
35679;SDS011;21803;53.586;10.040;2023-05-10T15:25:32;3.05;;;1.40;;
35679;SDS011;21803;53.586;10.040;2023-05-10T15:28:02;1.35;;;1.25;;
35679;SDS011;21803;53.586;10.040;2023-05-10T15:30:27;1.50;;;1.40;;
35679;SDS011;21803;53.586;10.040;2023-05-10T15:32:53;1.50;;;1.40;;
35679;SDS011;21803;53.586;10.040;2023-05-10T15:35:19;1.92;;;1.50;;
35679;SDS011;21803;53.586;10.040;2023-05-10T15:37:46;1.63;;;1.42;;
35679;SDS011;21803;53.586;10.040;2023-05-10T15:40:12;2.20;;;1.80;;
35679;SDS011;21803;53.586;10.040;2023-05-10T15:42:38;1.60;;;1.45;;
35679;SDS011;21803;53.586;10.040;2023-05-10T15:45:04;1.60;;;1.50;;
35679;SDS011;21803;53.586;10.040;2023-05-10T15:47:29;1.88;;;1.60;;
35679;SDS011;21803;53.586;10.040;2023-05-10T15:49:55;1.70;;;1.50;;
35679;SDS011;21803;53.586;10.040;2023-05-10T15:52:21;1.60;;;1.50;;
35679;SDS011;21803;53.586;10.040;2023-05-10T15:54:47;1.58;;;1.48;;
35679;SDS011;21803;53.586;10.040;2023-05-10T15:57:13;3.33;;;1.60;;
35679;SDS011;21803;53.586;10.040;2023-05-10T15:59:39;2.25;;;1.67;;
35679;SDS011;21803;53.586;10.040;2023-05-10T16:02:04;1.92;;;1.60;;
35679;SDS011;21803;53.586;10.040;2023-05-10T16:04:31;2.70;;;1.73;;
35679;SDS011;21803;53.586;10.040;2023-05-10T16:06:57;4.18;;;2.30;;
35679;SDS011;21803;53.586;10.040;2023-05-10T16:09:22;2.63;;;2.00;;
35679;SDS011;21803;53.586;10.040;2023-05-10T16:11:48;4.07;;;2.00;;
35679;SDS011;21803;53.586;10.040;2023-05-10T16:14:13;2.78;;;2.03;;
35679;SDS011;21803;53.586;10.040;2023-05-10T16:16:40;1.95;;;1.70;;
35679;SDS011;21803;53.586;10.040;2023-05-10T16:19:09;3.90;;;1.80;;
35679;SDS011;21803;53.586;10.040;2023-05-10T16:21:35;3.45;;;1.90;;
35679;SDS011;21803;53.586;10.040;2023-05-10T16:24:02;3.88;;;1.80;;
35679;SDS011;21803;53.586;10.040;2023-05-10T16:26:28;3.95;;;1.90;;
35679;SDS011;21803;53.586;10.040;2023-05-10T16:28:54;1.70;;;1.58;;
35679;SDS011;21803;53.586;10.040;2023-05-10T16:31:20;4.03;;;1.40;;
35679;SDS011;21803;53.586;10.040;2023-05-10T16:33:45;1.92;;;1.50;;
35679;SDS011;21803;53.586;10.040;2023-05-10T16:36:11;2.58;;;1.52;;
35679;SDS011;21803;53.586;10.040;2023-05-10T16:38:36;2.80;;;1.60;;
35679;SDS011;21803;53.586;10.040;2023-05-10T16:41:02;3.80;;;1.70;;
35679;SDS011;21803;53.586;10.040;2023-05-10T16:43:28;2.83;;;1.77;;
35679;SDS011;21803;53.586;10.040;2023-05-10T16:45:54;2.00;;;1.38;;
35679;SDS011;21803;53.586;10.040;2023-05-10T16:48:20;4.47;;;1.60;;
35679;SDS011;21803;53.586;10.040;2023-05-10T16:50:46;2.08;;;1.60;;
35679;SDS011;21803;53.586;10.040;2023-05-10T16:53:12;2.58;;;1.67;;
35679;SDS011;21803;53.586;10.040;2023-05-10T16:55:38;2.05;;;1.60;;
35679;SDS011;21803;53.586;10.040;2023-05-10T16:58:03;4.38;;;2.25;;
35679;SDS011;21803;53.586;10.040;2023-05-10T17:00:29;2.58;;;1.60;;
35679;SDS011;21803;53.586;10.040;2023-05-10T17:02:54;2.03;;;1.48;;
35679;SDS011;21803;53.586;10.040;2023-05-10T17:05:20;2.13;;;1.50;;
35679;SDS011;21803;53.586;10.040;2023-05-10T17:07:46;3.13;;;1.38;;
35679;SDS011;21803;53.586;10.040;2023-05-10T17:10:12;2.92;;;1.40;;
35679;SDS011;21803;53.586;10.040;2023-05-10T17:12:37;2.47;;;1.40;;
35679;SDS011;21803;53.586;10.040;2023-05-10T17:15:04;2.08;;;1.50;;
35679;SDS011;21803;53.586;10.040;2023-05-10T17:17:30;1.95;;;1.50;;
35679;SDS011;21803;53.586;10.040;2023-05-10T17:19:56;2.28;;;1.60;;
35679;SDS011;21803;53.586;10.040;2023-05-10T17:22:22;3.78;;;1.20;;
35679;SDS011;21803;53.586;10.040;2023-05-10T17:24:48;2.45;;;1.40;;
35679;SDS011;21803;53.586;10.040;2023-05-10T17:27:14;1.63;;;1.35;;
35679;SDS011;21803;53.586;10.040;2023-05-10T17:29:40;2.47;;;1.48;;
35679;SDS011;21803;53.586;10.040;2023-05-10T17:32:06;2.00;;;1.30;;
35679;SDS011;21803;53.586;10.040;2023-05-10T17:34:33;2.17;;;1.48;;
35679;SDS011;21803;53.586;10.040;2023-05-10T17:37:00;1.52;;;1.30;;
35679;SDS011;21803;53.586;10.040;2023-05-10T17:39:26;1.83;;;1.15;;
35679;SDS011;21803;53.586;10.040;2023-05-10T17:41:51;2.35;;;1.40;;
35679;SDS011;21803;53.586;10.040;2023-05-10T17:44:17;2.65;;;1.30;;
35679;SDS011;21803;53.586;10.040;2023-05-10T17:46:43;2.75;;;1.33;;
35679;SDS011;21803;53.586;10.040;2023-05-10T17:49:08;2.25;;;1.40;;
35679;SDS011;21803;53.586;10.040;2023-05-10T17:51:34;1.55;;;1.38;;
35679;SDS011;21803;53.586;10.040;2023-05-10T17:54:00;3.60;;;1.30;;
35679;SDS011;21803;53.586;10.040;2023-05-10T17:56:25;1.80;;;1.25;;
35679;SDS011;21803;53.586;10.040;2023-05-10T17:58:51;1.73;;;1.13;;
35679;SDS011;21803;53.586;10.040;2023-05-10T18:01:16;1.75;;;1.13;;
35679;SDS011;21803;53.586;10.040;2023-05-10T18:03:42;1.65;;;1.30;;
35679;SDS011;21803;53.586;10.040;2023-05-10T18:06:07;2.05;;;1.40;;
35679;SDS011;21803;53.586;10.040;2023-05-10T18:08:33;2.20;;;1.30;;
35679;SDS011;21803;53.586;10.040;2023-05-10T18:10:58;3.38;;;1.30;;
35679;SDS011;21803;53.586;10.040;2023-05-10T18:13:24;1.83;;;1.20;;
35679;SDS011;21803;53.586;10.040;2023-05-10T18:15:50;2.03;;;1.20;;
35679;SDS011;21803;53.586;10.040;2023-05-10T18:18:16;1.70;;;1.42;;
35679;SDS011;21803;53.586;10.040;2023-05-10T18:20:42;1.80;;;1.25;;
35679;SDS011;21803;53.586;10.040;2023-05-10T18:23:07;2.78;;;1.38;;
35679;SDS011;21803;53.586;10.040;2023-05-10T18:25:33;1.77;;;1.30;;
35679;SDS011;21803;53.586;10.040;2023-05-10T18:27:58;2.40;;;1.20;;
35679;SDS011;21803;53.586;10.040;2023-05-10T18:30:24;1.35;;;1.15;;
35679;SDS011;21803;53.586;10.040;2023-05-10T18:32:50;1.75;;;1.27;;
35679;SDS011;21803;53.586;10.040;2023-05-10T18:35:15;2.88;;;1.38;;
35679;SDS011;21803;53.586;10.040;2023-05-10T18:37:41;2.28;;;1.38;;
35679;SDS011;21803;53.586;10.040;2023-05-10T18:40:07;1.75;;;1.25;;
35679;SDS011;21803;53.586;10.040;2023-05-10T18:42:38;1.40;;;1.30;;
35679;SDS011;21803;53.586;10.040;2023-05-10T18:45:04;1.80;;;1.10;;
35679;SDS011;21803;53.586;10.040;2023-05-10T18:47:30;2.83;;;1.17;;
35679;SDS011;21803;53.586;10.040;2023-05-10T18:49:56;1.52;;;1.17;;
35679;SDS011;21803;53.586;10.040;2023-05-10T18:52:21;2.53;;;1.40;;
35679;SDS011;21803;53.586;10.040;2023-05-10T18:54:47;2.47;;;1.30;;
35679;SDS011;21803;53.586;10.040;2023-05-10T18:57:13;1.52;;;1.10;;
35679;SDS011;21803;53.586;10.040;2023-05-10T18:59:39;1.98;;;1.30;;
35679;SDS011;21803;53.586;10.040;2023-05-10T19:02:04;2.08;;;1.20;;